Startpagina
METAR-TAF:

METAR-TAF

Vliegvelden :

Diest, België

Schaffen

breedte: 51-00N, lengte: 005-04E, hoogte: 30 m

Actueel weer

Dit bericht is 23 minuten geleden gemaakt, om 18:55 UTC
Wind 1 kt uit variabele richting
Temperatuur 22°C
Vochtigheid 41%
Druk 1015 hPa
Zicht 10 km of meer

METAR: EBDT 221855Z AUTO VRB01KT 9999 BKN170/// 22/08 Q1015 BLU

Tijdstip: 21:18 (19:18 UTC)

Verwachting

Dit bericht is 3 uur en het 37 minuten geleden gemaakt, om 15:41 UTC
Verwachting geldig van 22 om 19 UTC tot 23 om 07 UTC
Wind 3 kt uit het zuiden
Zicht 10 km of meer
Weinig wolken op 15000 ft
Verspreide wolken op 25000 ft
Kans 30% :
Tijdelijke
van 23 om 04 UTC tot 23 om 06 UTC
Zicht: 5000 m
nevel

TAF: EBDT 221541Z 2219/2307 17003KT 9999 FEW150 SCT250 PROB30 TEMPO 2304/2306 5000 BR

Waarnemingen en weersverwachtingen van meer dan 4000 vliegvelden (METAR en TAF).

De beschikbare stations zijn de gele en rode punten op de kaart.

Ga met uw muis naar het station om de naam te zien.

Klik dan om waarnemingen en weersverwachtingen te zien.

kaart wijzigen: klik op de groene knoppen met een zwart kruis om in te zoomen, op de groene knop met een streepje om uit te zoomen of op de groene pijlen voor aangrenzende kaarten.


METAR-TAF: